N174K KARR-KARR
Flight info
| Callsign | N174K |
|---|---|
| Flight time | N/A |
| Altitude | 8500 |
| Route | WEST DEPARTURE |
| Aircraft | C172/L-V/N |
Departure
| Time | 2026-05-07 19:27 |
|---|---|
| Airport | Aurora Municipal Airport (KARR) |
Arrival
| Time | N/A |
|---|---|
| Airport | Aurora Municipal Airport (KARR) |
| Time | Latitude | Longitude | Altitude | Speed | Heading |
|---|---|---|---|---|---|
| 2026-05-07 19:22 | 41.76841 | -88.46653 | 707 ft | 0 kts | 206° |
| 2026-05-07 19:22 | 41.76843 | -88.46652 | 707 ft | 2 kts | 200° |
| 2026-05-07 19:22 | 41.76857 | -88.46647 | 705 ft | 0 kts | 204° |
| 2026-05-07 19:23 | 41.76856 | -88.46650 | 704 ft | 2 kts | 259° |
| 2026-05-07 19:23 | 41.76871 | -88.46682 | 705 ft | 4 kts | 340° |
| 2026-05-07 19:23 | 41.76885 | -88.46691 | 702 ft | 2 kts | 319° |
| 2026-05-07 19:23 | 41.76922 | -88.46673 | 708 ft | 9 kts | 57° |
| 2026-05-07 19:24 | 41.76927 | -88.46595 | 708 ft | 8 kts | 82° |
| 2026-05-07 19:24 | 41.76928 | -88.46527 | 709 ft | 7 kts | 87° |
| 2026-05-07 19:24 | 41.76929 | -88.46448 | 709 ft | 9 kts | 89° |
| 2026-05-07 19:24 | 41.76932 | -88.46362 | 710 ft | 12 kts | 92° |
| 2026-05-07 19:25 | 41.76934 | -88.46235 | 710 ft | 4 kts | 95° |
| 2026-05-07 19:25 | 41.76938 | -88.46172 | 711 ft | 9 kts | 33° |
| 2026-05-07 19:25 | 41.77026 | -88.46179 | 714 ft | 14 kts | 289° |
| 2026-05-07 19:25 | 41.77038 | -88.46272 | 710 ft | 10 kts | 275° |
| 2026-05-07 19:26 | 41.77037 | -88.46477 | 708 ft | 32 kts | 268° |
| 2026-05-07 19:26 | 41.77035 | -88.46878 | 706 ft | 58 kts | 270° |
| 2026-05-07 19:26 | 41.77029 | -88.47538 | 708 ft | 82 kts | 265° |
| 2026-05-07 19:26 | 41.77030 | -88.48364 | 773 ft | 89 kts | 271° |
| 2026-05-07 19:27 | 41.77035 | -88.49164 | 989 ft | 87 kts | 260° |
| 2026-05-07 19:27 | 41.76936 | -88.50001 | 1137 ft | 94 kts | 259° |
| 2026-05-07 19:27 | 41.76539 | -88.50465 | 1337 ft | 101 kts | 176° |
| 2026-05-07 19:27 | 41.75993 | -88.49761 | 1543 ft | 122 kts | 123° |
| 2026-05-07 19:28 | 41.76004 | -88.48569 | 1730 ft | 133 kts | 84° |
| 2026-05-07 19:28 | 41.76192 | -88.47310 | 1790 ft | 141 kts | 84° |
| 2026-05-07 19:28 | 41.76315 | -88.46029 | 1943 ft | 139 kts | 85° |
| 2026-05-07 19:28 | 41.76501 | -88.44801 | 1995 ft | 139 kts | 38° |
| 2026-05-07 19:29 | 41.77390 | -88.44357 | 1922 ft | 147 kts | 27° |
| 2026-05-07 19:29 | 41.78113 | -88.43443 | 2018 ft | 147 kts | 47° |
| 2026-05-07 19:29 | 41.78728 | -88.42307 | 1981 ft | 150 kts | 55° |
| 2026-05-07 19:29 | 41.79321 | -88.41194 | 2040 ft | 140 kts | 53° |
| 2026-05-07 19:30 | 41.79900 | -88.40129 | 1962 ft | 145 kts | 53° |
| 2026-05-07 19:30 | 41.80513 | -88.39036 | 2026 ft | 146 kts | 50° |
| 2026-05-07 19:30 | 41.81116 | -88.37938 | 2144 ft | 145 kts | 57° |
| 2026-05-07 19:30 | 41.81668 | -88.36803 | 2231 ft | 145 kts | 56° |
| 2026-05-07 19:31 | 41.82204 | -88.35693 | 2344 ft | 143 kts | 54° |
| 2026-05-07 19:31 | 41.82791 | -88.34590 | 2330 ft | 148 kts | 54° |
| 2026-05-07 19:31 | 41.83370 | -88.33459 | 2401 ft | 146 kts | 54° |
| 2026-05-07 19:31 | 41.84028 | -88.32444 | 2591 ft | 140 kts | 34° |
| 2026-05-07 19:32 | 41.84942 | -88.32073 | 2439 ft | 144 kts | 340° |
| 2026-05-07 19:32 | 41.85550 | -88.32853 | 2562 ft | 111 kts | 274° |
| 2026-05-07 19:32 | 41.85177 | -88.33663 | 2514 ft | 115 kts | 215° |
| 2026-05-07 19:32 | 41.84417 | -88.33730 | 2590 ft | 131 kts | 163° |
| 2026-05-07 19:33 | 41.83916 | -88.32695 | 2754 ft | 138 kts | 98° |
| 2026-05-07 19:33 | 41.84275 | -88.31390 | 2601 ft | 158 kts | 58° |
| 2026-05-07 19:33 | 41.84766 | -88.30201 | 2947 ft | 142 kts | 59° |
| 2026-05-07 19:33 | 41.85318 | -88.29040 | 3011 ft | 148 kts | 50° |
| 2026-05-07 19:34 | 41.85819 | -88.27862 | 3182 ft | 149 kts | 81° |
| 2026-05-07 19:34 | 41.85749 | -88.26480 | 3280 ft | 144 kts | 112° |
| 2026-05-07 19:34 | 41.85406 | -88.25256 | 3381 ft | 141 kts | 116° |
| 2026-05-07 19:34 | 41.85295 | -88.23954 | 3535 ft | 141 kts | 80° |
| 2026-05-07 19:35 | 41.85797 | -88.22864 | 3753 ft | 133 kts | 26° |
| 2026-05-07 19:35 | 41.86635 | -88.22602 | 3607 ft | 126 kts | 339° |
| 2026-05-07 19:35 | 41.87504 | -88.22854 | 3507 ft | 132 kts | 340° |
| 2026-05-07 19:35 | 41.88405 | -88.23079 | 3319 ft | 125 kts | 341° |
| 2026-05-07 19:36 | 41.89238 | -88.23247 | 3004 ft | 124 kts | 353° |
| 2026-05-07 19:36 | 41.90047 | -88.22764 | 2674 ft | 135 kts | 54° |
| 2026-05-07 19:36 | 41.90053 | -88.21671 | 2835 ft | 114 kts | 138° |
| 2026-05-07 19:36 | 41.89385 | -88.21313 | 2831 ft | 107 kts | 189° |
| 2026-05-07 19:37 | 41.88659 | -88.21492 | 2778 ft | 108 kts | 205° |
| 2026-05-07 19:37 | 41.88093 | -88.22040 | 2814 ft | 100 kts | 254° |
| 2026-05-07 19:37 | 41.88151 | -88.22987 | 2737 ft | 108 kts | 279° |
| 2026-05-07 19:37 | 41.88335 | -88.23853 | 2537 ft | 95 kts | 279° |
| 2026-05-07 19:38 | 41.88458 | -88.24769 | 2091 ft | 102 kts | 283° |
| 2026-05-07 19:38 | 41.88842 | -88.25587 | 1786 ft | 104 kts | 315° |
| 2026-05-07 19:38 | 41.89496 | -88.26092 | 1400 ft | 117 kts | 330° |
| 2026-05-07 19:38 | 41.90315 | -88.26109 | 1280 ft | 123 kts | 6° |
| 2026-05-07 19:39 | 41.91113 | -88.25854 | 1279 ft | 113 kts | 8° |
| 2026-05-07 19:39 | 41.91864 | -88.25526 | 1175 ft | 107 kts | 32° |
| 2026-05-07 19:39 | 41.92055 | -88.24735 | 976 ft | 74 kts | 139° |
| 2026-05-07 19:39 | 41.91731 | -88.24573 | 898 ft | 44 kts | 203° |
| 2026-05-07 19:40 | 41.91426 | -88.24676 | 800 ft | 48 kts | 206° |
| 2026-05-07 19:40 | 41.91112 | -88.24790 | 765 ft | 45 kts | 200° |
| 2026-05-07 19:40 | 41.90831 | -88.24879 | 760 ft | 37 kts | 197° |
| 2026-05-07 19:40 | 41.90628 | -88.24978 | 758 ft | 19 kts | 188° |
| 2026-05-07 19:41 | 41.90597 | -88.25055 | 756 ft | 11 kts | 274° |
| 2026-05-07 19:41 | 41.90654 | -88.25131 | 758 ft | 15 kts | 343° |
| 2026-05-07 19:41 | 41.90677 | -88.25242 | 758 ft | 11 kts | 271° |
| 2026-05-07 19:41 | 41.90676 | -88.25346 | 758 ft | 10 kts | 271° |
| 2026-05-07 19:42 | 41.90666 | -88.25414 | 755 ft | 4 kts | 252° |
| 2026-05-07 19:42 | 41.90666 | -88.25417 | 755 ft | 0 kts | 270° |